Time;durP1;ratioP1;P1;durP2;ratioP2;P2;SDS_P1;SDS_P2;PMS_P1;PMS_P2;Temp;Humidity;BMP_temperature;BMP_pressure;BME280_temperature;BME280_humidity;BME280_pressure;Samples;Min_cycle;Max_cycle;Signal;HPM_P1;HPM_P2
2023/07/01 00:02:15;;;;;;;5.13;4.00;;;;;;;13.25;93.83;99999.59;5007823;28;20694;-73
2023/07/01 00:04:41;;;;;;;4.43;4.03;;;;;;;13.25;92.95;100006.69;5008229;28;20193;-72
2023/07/01 00:07:08;;;;;;;4.73;4.23;;;;;;;13.28;92.65;100009.34;5008468;28;20216;-70
2023/07/01 00:09:34;;;;;;;6.30;4.10;;;;;;;13.29;91.63;100008.44;5006342;28;20211;-70
2023/07/01 00:12:01;;;;;;;6.17;4.13;;;;;;;13.24;91.88;100002.25;5008702;28;20215;-71
2023/07/01 00:14:27;;;;;;;6.03;4.03;;;;;;;13.10;92.46;99997.81;5006242;28;20224;-71
2023/07/01 00:16:54;;;;;;;5.83;4.43;;;;;;;13.05;92.94;99996.97;5009280;28;20466;-71
2023/07/01 00:19:21;;;;;;;6.13;3.87;;;;;;;12.97;94.02;99998.75;5006992;28;20603;-71
2023/07/01 00:21:47;;;;;;;4.63;4.10;;;;;;;12.81;94.56;100000.56;5007797;28;20200;-72
2023/07/01 00:24:14;;;;;;;5.73;3.83;;;;;;;12.67;95.33;99991.72;5008442;28;20287;-72
2023/07/01 00:26:40;;;;;;;7.90;3.70;;;;;;;12.55;96.54;100000.59;5004640;28;20640;-72
2023/07/01 00:29:07;;;;;;;6.20;4.07;;;;;;;12.47;96.53;99999.72;5001489;28;20199;-71
2023/07/01 00:31:33;;;;;;;5.27;3.77;;;;;;;12.43;96.38;99997.09;5006628;28;20226;-70
2023/07/01 00:34:00;;;;;;;5.57;4.27;;;;;;;12.44;97.87;99997.09;5006954;28;20220;-69
2023/07/01 00:36:26;;;;;;;9.23;4.43;;;;;;;12.54;98.36;99988.22;4999534;28;20214;-71
2023/07/01 00:38:52;;;;;;;4.70;4.10;;;;;;;12.54;98.57;99982.00;5005241;28;20424;-71
2023/07/01 00:41:20;;;;;;;6.33;4.10;;;;;;;12.54;98.83;99982.00;5007052;28;20212;-72
2023/07/01 00:43:47;;;;;;;4.77;4.27;;;;;;;12.49;99.33;99974.06;5007502;28;20302;-72
2023/07/01 00:46:16;;;;;;;8.00;4.20;;;;;;;12.46;99.65;99973.16;5001115;28;20199;-70
2023/07/01 00:48:42;;;;;;;4.43;3.93;;;;;;;12.60;98.75;99967.84;5003909;28;20316;-70
2023/07/01 00:51:09;;;;;;;5.10;4.03;;;;;;;12.68;97.29;99964.28;5004719;28;20204;-72
2023/07/01 00:53:36;;;;;;;5.33;3.80;;;;;;;12.70;96.46;99974.88;5003503;28;20196;-73
2023/07/01 00:56:03;;;;;;;4.87;4.00;;;;;;;12.65;96.51;99964.28;5002529;28;20317;-74
2023/07/01 00:58:29;;;;;;;5.40;3.90;;;;;;;12.62;96.46;99966.06;5007126;28;20223;-76
2023/07/01 01:00:58;;;;;;;5.47;4.10;;;;;;;12.57;97.78;99965.19;5008856;28;20206;-76
2023/07/01 01:03:46;;;;;;;5.80;3.93;;;;;;;12.48;99.08;99959.00;5002216;28;20218;-75
2023/07/01 01:06:33;;;;;;;7.17;3.80;;;;;;;12.38;99.69;99956.34;5005911;28;20302;-77
2023/07/01 01:09:11;;;;;;;5.57;4.20;;;;;;;12.34;100.00;99962.53;5003728;28;20756;-78
2023/07/01 01:11:44;;;;;;;7.23;3.97;;;;;;;12.29;100.00;99954.56;5005901;28;20208;-78
2023/07/01 01:14:13;;;;;;;5.30;4.30;;;;;;;12.35;100.00;99953.69;5006290;28;20192;-77
2023/07/01 01:16:41;;;;;;;5.43;3.73;;;;;;;12.46;100.00;99947.50;5004191;28;20214;-76
2023/07/01 01:19:19;;;;;;;5.40;3.80;;;;;;;12.60;98.89;99949.25;5004010;28;20218;-75
2023/07/01 01:22:04;;;;;;;5.07;3.90;;;;;;;12.74;97.43;99943.00;5004215;28;20555;-75
2023/07/01 01:24:34;;;;;;;6.40;3.83;;;;;;;12.72;98.20;99935.91;5000991;28;20224;-76
2023/07/01 01:27:04;;;;;;;6.40;4.13;;;;;;;12.86;97.68;99939.44;4998745;28;20718;-76
2023/07/01 01:29:31;;;;;;;7.83;3.90;;;;;;;12.80;97.85;99942.09;5004481;28;20216;-74
2023/07/01 01:31:57;;;;;;;5.57;4.00;;;;;;;12.78;98.15;99939.44;4999372;28;20664;-76
2023/07/01 01:34:23;;;;;;;7.43;3.90;;;;;;;12.81;97.88;99943.88;5005311;28;20575;-79
2023/07/01 01:36:56;;;;;;;5.20;4.17;;;;;;;12.80;97.83;99937.66;5005320;28;20227;-76
2023/07/01 01:39:29;;;;;;;5.33;3.70;;;;;;;12.79;97.46;99935.88;5004324;28;20205;-77
2023/07/01 01:42:10;;;;;;;4.20;3.67;;;;;;;12.80;97.49;99942.09;4996133;28;20258;-76
2023/07/01 01:44:47;;;;;;;4.43;3.90;;;;;;;12.84;97.57;99927.94;5003148;28;20223;-73
2023/07/01 01:47:18;;;;;;;5.10;3.90;;;;;;;12.92;97.60;99934.09;5003006;28;20219;-74
2023/07/01 01:49:46;;;;;;;4.10;3.70;;;;;;;13.20;96.77;99916.28;5007269;28;20290;-72
2023/07/01 01:52:16;;;;;;;4.80;3.90;;;;;;;13.43;94.50;99918.81;5007681;28;20214;-72
2023/07/01 01:54:45;;;;;;;5.13;3.90;;;;;;;13.52;94.52;99921.44;5009451;28;20681;-71
2023/07/01 01:57:12;;;;;;;4.30;3.40;;;;;;;13.63;92.85;99921.38;5008459;28;20219;-70
2023/07/01 01:59:39;;;;;;;4.13;3.70;;;;;;;13.58;92.81;99910.75;5006321;28;20911;-72
2023/07/01 02:02:06;;;;;;;7.43;3.83;;;;;;;13.54;92.99;99905.44;5010339;28;20200;-71
2023/07/01 02:04:32;;;;;;;5.27;3.67;;;;;;;13.49;92.87;99902.81;5000698;28;20219;-72
2023/07/01 02:06:59;;;;;;;5.67;4.03;;;;;;;13.45;91.74;99914.38;5002742;28;20223;-71
2023/07/01 02:09:25;;;;;;;6.20;4.07;;;;;;;13.42;92.00;99909.97;5005225;28;20204;-71
2023/07/01 02:11:52;;;;;;;4.40;3.30;;;;;;;13.43;92.16;99913.50;5010632;28;20226;-71
2023/07/01 02:14:18;;;;;;;4.00;3.20;;;;;;;13.45;91.11;99907.28;5003810;28;20871;-70
2023/07/01 02:16:44;;;;;;;4.33;3.77;;;;;;;13.46;91.70;99908.16;5010042;28;20203;-71
2023/07/01 02:19:11;;;;;;;6.07;3.50;;;;;;;13.53;91.68;99903.69;5008612;28;20695;-71
2023/07/01 02:21:37;;;;;;;5.87;3.40;;;;;;;13.56;91.58;99899.22;5011499;28;20193;-69
2023/07/01 02:24:04;;;;;;;4.90;3.40;;;;;;;13.61;91.12;99908.09;5005585;28;20200;-70
2023/07/01 02:26:30;;;;;;;4.53;3.63;;;;;;;13.64;91.26;99899.19;5008217;28;20290;-69
2023/07/01 02:28:57;;;;;;;5.03;3.50;;;;;;;13.65;90.87;99906.28;5008354;28;20311;-69
2023/07/01 02:31:23;;;;;;;6.87;3.57;;;;;;;13.86;88.70;99899.91;5004267;28;20193;-68
2023/07/01 02:33:50;;;;;;;5.30;3.70;;;;;;;13.82;88.92;99898.16;5002789;28;20204;-71
2023/07/01 02:36:17;;;;;;;6.27;3.63;;;;;;;13.83;89.67;99892.84;5006561;28;20211;-70
2023/07/01 02:38:43;;;;;;;4.67;3.63;;;;;;;13.87;89.22;99889.25;5006403;28;20216;-70
2023/07/01 02:41:09;;;;;;;4.07;3.67;;;;;;;13.83;89.01;99891.94;5009964;28;20200;-68
2023/07/01 02:43:36;;;;;;;4.93;3.50;;;;;;;13.89;89.13;99891.91;5005564;28;20284;-69
2023/07/01 02:46:03;;;;;;;3.13;2.83;;;;;;;13.86;89.29;99886.59;5004199;28;21082;-69
2023/07/01 02:48:29;;;;;;;3.80;3.40;;;;;;;13.87;90.35;99897.22;5008219;28;20225;-70
2023/07/01 02:50:56;;;;;;;5.00;3.60;;;;;;;13.84;90.76;99875.09;5006327;28;20224;-69
2023/07/01 02:53:22;;;;;;;3.60;3.30;;;;;;;13.84;91.15;99888.38;5007811;28;20192;-68
2023/07/01 02:55:48;;;;;;;4.97;3.80;;;;;;;13.86;91.86;99890.16;5006739;28;20209;-70
2023/07/01 02:58:15;;;;;;;3.97;3.33;;;;;;;13.87;92.59;99891.91;5009921;28;20251;-67
2023/07/01 03:00:41;;;;;;;3.73;3.13;;;;;;;14.00;92.54;99898.88;5006425;28;20202;-70
2023/07/01 03:03:08;;;;;;;6.03;3.20;;;;;;;13.98;93.03;99894.47;5008522;28;20201;-69
2023/07/01 03:05:39;;;;;;;3.67;3.37;;;;;;;13.91;93.59;99893.66;5002749;28;20217;-70
2023/07/01 03:08:06;;;;;;;4.33;3.50;;;;;;;13.93;95.08;99886.53;5004034;28;20216;-69
2023/07/01 03:10:33;;;;;;;4.23;3.53;;;;;;;13.92;96.17;99884.75;5008153;28;20211;-70
2023/07/01 03:13:00;;;;;;;5.83;3.57;;;;;;;13.93;97.03;99880.31;5007542;28;20291;-70
2023/07/01 03:15:26;;;;;;;4.27;3.60;;;;;;;13.92;97.92;99882.09;5004642;28;20223;-69
2023/07/01 03:17:52;;;;;;;4.17;3.50;;;;;;;13.93;98.15;99888.31;5010457;28;20224;-70
2023/07/01 03:20:25;;;;;;;4.73;3.90;;;;;;;13.95;98.97;99882.06;5009465;28;20680;-71
2023/07/01 03:22:56;;;;;;;3.97;3.30;;;;;;;13.95;99.33;99875.88;5009495;28;20287;-70
2023/07/01 03:25:27;;;;;;;5.00;4.50;;;;;;;13.96;99.51;99881.19;5004629;28;20593;-69
2023/07/01 03:27:53;;;;;;;4.87;3.40;;;;;;;13.98;99.90;99874.06;5008116;28;20219;-69
2023/07/01 03:30:27;;;;;;;5.23;3.57;;;;;;;14.01;100.00;99878.50;5002958;28;20203;-70
2023/07/01 03:32:54;;;;;;;4.80;3.63;;;;;;;14.09;100.00;99874.88;5006705;28;20595;-71
2023/07/01 03:35:21;;;;;;;4.23;3.47;;;;;;;14.09;99.85;99876.66;5006237;28;20247;-69
2023/07/01 03:37:47;;;;;;;4.63;3.67;;;;;;;14.10;100.00;99873.09;5009081;28;20223;-68
2023/07/01 03:40:14;;;;;;;6.77;3.77;;;;;;;14.10;99.91;99873.09;5006376;28;20319;-70
2023/07/01 03:42:41;;;;;;;4.13;3.30;;;;;;;14.12;99.58;99873.97;5004426;28;20295;-71
2023/07/01 03:45:10;;;;;;;4.80;3.73;;;;;;;14.23;98.77;99866.75;5008487;28;20211;-70
2023/07/01 03:47:43;;;;;;;6.50;3.73;;;;;;;14.21;98.84;99873.84;5006451;28;20793;-68
2023/07/01 03:50:11;;;;;;;5.40;4.00;;;;;;;14.29;99.70;99864.00;5008014;28;20247;-70
2023/07/01 03:52:38;;;;;;;5.70;3.70;;;;;;;14.23;99.61;99861.41;5002478;28;20201;-68
2023/07/01 03:55:09;;;;;;;4.13;3.50;;;;;;;14.26;99.88;99869.38;5005069;28;20204;-69
2023/07/01 03:57:35;;;;;;;4.87;3.80;;;;;;;14.40;99.58;99877.22;5001882;28;20212;-72
2023/07/01 04:00:08;;;;;;;3.97;3.33;;;;;;;14.45;98.81;99874.56;5009126;28;20193;-70
2023/07/01 04:02:37;;;;;;;4.77;3.73;;;;;;;14.38;98.61;99863.03;5003372;28;20201;-69
2023/07/01 04:05:10;;;;;;;5.30;3.70;;;;;;;14.36;98.59;99863.03;5004154;28;20215;-70
2023/07/01 04:07:37;;;;;;;5.53;3.40;;;;;;;14.37;98.80;99861.25;4997200;28;20224;-71
2023/07/01 04:10:05;;;;;;;4.87;3.37;;;;;;;14.53;97.16;99860.25;5004298;28;20192;-70
2023/07/01 04:12:35;;;;;;;4.60;3.33;;;;;;;14.67;94.26;99868.06;5008006;28;20577;-68
2023/07/01 04:15:08;;;;;;;4.83;3.30;;;;;;;14.71;94.72;99859.13;5004440;28;20283;-68
2023/07/01 04:17:44;;;;;;;5.03;3.20;;;;;;;14.78;95.08;99859.94;5007877;28;20223;-70
2023/07/01 04:20:13;;;;;;;5.00;3.30;;;;;;;14.85;95.07;99859.88;5005868;28;20231;-70
2023/07/01 04:22:40;;;;;;;5.43;3.20;;;;;;;14.94;94.90;99862.41;4999352;28;20192;-70
2023/07/01 04:25:07;;;;;;;4.03;3.37;;;;;;;14.93;94.76;99866.00;5005554;28;20226;-69
2023/07/01 04:27:35;;;;;;;7.97;3.73;;;;;;;15.08;94.82;99861.34;5003646;28;20227;-68
2023/07/01 04:30:02;;;;;;;4.07;3.40;;;;;;;15.13;94.48;99860.38;5009036;28;20192;-68
2023/07/01 04:32:29;;;;;;;4.20;3.30;;;;;;;15.27;94.04;99866.44;5001067;28;20196;-69
2023/07/01 04:34:55;;;;;;;4.50;3.23;;;;;;;15.43;93.80;99856.41;5002219;28;20254;-69
2023/07/01 04:37:21;;;;;;;6.00;3.50;;;;;;;15.61;93.02;99850.84;5004096;28;20220;-70
2023/07/01 04:39:48;;;;;;;3.93;3.27;;;;;;;15.83;91.78;99858.47;5002330;28;20527;-69
2023/07/01 04:42:14;;;;;;;4.73;3.20;;;;;;;16.06;90.96;99853.66;5006601;28;20197;-69
2023/07/01 04:44:41;;;;;;;4.37;3.50;;;;;;;16.19;89.05;99849.84;5001709;28;20196;-68
2023/07/01 04:47:07;;;;;;;4.83;3.50;;;;;;;16.31;88.94;99846.03;5005827;28;20224;-69
2023/07/01 04:49:33;;;;;;;6.90;3.37;;;;;;;16.47;88.42;99833.28;5004109;28;20204;-68
2023/07/01 04:52:00;;;;;;;4.70;3.30;;;;;;;16.71;87.27;99842.63;5004869;28;20196;-69
2023/07/01 04:54:26;;;;;;;3.93;3.20;;;;;;;16.85;86.43;99852.16;5001534;28;20205;-69
2023/07/01 04:56:53;;;;;;;7.23;3.60;;;;;;;16.88;86.04;99841.41;5003765;28;20214;-69
2023/07/01 04:59:19;;;;;;;6.00;3.23;;;;;;;16.92;85.08;99829.72;5004924;28;20243;-69
2023/07/01 05:01:45;;;;;;;5.13;3.43;;;;;;;17.06;82.99;99833.88;5002562;28;20205;-69
2023/07/01 05:04:12;;;;;;;4.53;3.00;;;;;;;17.16;82.94;99832.75;4997718;28;20199;-68
2023/07/01 05:06:38;;;;;;;4.77;3.07;;;;;;;17.27;81.91;99827.19;4997111;28;20216;-69
2023/07/01 05:09:06;;;;;;;5.87;3.43;;;;;;;17.35;82.18;99826.06;5002808;28;20219;-70
2023/07/01 05:11:32;;;;;;;4.37;3.00;;;;;;;17.69;80.45;99825.31;4999643;28;20239;-68
2023/07/01 05:13:59;;;;;;;3.93;2.73;;;;;;;17.95;78.56;99821.97;4998270;28;20211;-69
2023/07/01 05:16:25;;;;;;;3.87;3.00;;;;;;;18.04;75.57;99838.69;5006880;28;20245;-69
2023/07/01 05:18:54;;;;;;;4.83;3.07;;;;;;;18.07;75.13;99821.66;4995242;28;20609;-68
2023/07/01 05:21:20;;;;;;;4.40;2.70;;;;;;;18.09;73.82;99820.69;5006230;28;20200;-68
2023/07/01 05:23:47;;;;;;;4.80;2.70;;;;;;;18.27;73.73;99823.78;5006856;28;20196;-69
2023/07/01 05:26:13;;;;;;;4.97;2.70;;;;;;;18.44;73.37;99819.75;5006304;28;20451;-68
2023/07/01 05:28:40;;;;;;;3.57;2.70;;;;;;;18.47;72.53;99819.66;5011144;28;20247;-71
2023/07/01 05:31:06;;;;;;;4.43;2.80;;;;;;;18.70;69.99;99815.47;5009635;28;20196;-69
2023/07/01 05:33:32;;;;;;;5.27;2.83;;;;;;;19.34;66.67;99817.09;5001013;28;20280;-69
2023/07/01 05:35:59;;;;;;;5.83;2.50;;;;;;;20.08;63.90;99812.03;5005318;28;20193;-69
2023/07/01 05:38:25;;;;;;;4.37;2.50;;;;;;;20.07;61.74;99821.91;5011795;28;20220;-69
2023/07/01 05:40:51;;;;;;;3.80;2.27;;;;;;;20.03;62.12;99813.06;5005972;28;20211;-68
2023/07/01 05:43:18;;;;;;;3.87;2.60;;;;;;;19.57;64.99;99819.06;5008560;28;20287;-70
2023/07/01 05:45:44;;;;;;;4.07;2.50;;;;;;;19.59;65.56;99821.69;5004503;28;20658;-70
2023/07/01 05:48:11;;;;;;;3.33;2.40;;;;;;;19.76;64.69;99811.28;5000529;28;20216;-69
2023/07/01 05:50:39;;;;;;;4.70;2.77;;;;;;;19.90;63.52;99811.69;5003634;28;20220;-69
2023/07/01 05:53:07;;;;;;;4.17;2.60;;;;;;;20.12;62.12;99810.97;5008364;28;20201;-69
2023/07/01 05:55:38;;;;;;;7.07;2.95;;;;;;;20.54;61.66;99805.91;5008131;28;20193;-69
2023/07/01 05:58:04;;;;;;;3.88;2.67;;;;;;;20.48;61.53;99800.75;5004737;28;20216;-68
2023/07/01 06:00:30;;;;;;;3.35;2.35;;;;;;;20.72;61.80;99799.84;5003060;28;20231;-70
2023/07/01 06:02:57;;;;;;;7.45;2.50;;;;;;;20.79;60.08;99803.16;5010789;28;20228;-71
2023/07/01 06:05:23;;;;;;;4.15;2.80;;;;;;;20.83;61.27;99808.41;4972538;28;20507;-68
2023/07/01 06:07:50;;;;;;;3.58;2.47;;;;;;;21.04;60.10;99805.81;5006453;28;20615;-67
2023/07/01 06:10:17;;;;;;;5.53;2.65;;;;;;;21.29;59.53;99805.78;5002915;28;20243;-67
2023/07/01 06:12:43;;;;;;;4.93;2.78;;;;;;;21.52;58.72;99808.41;5004094;28;20284;-67
2023/07/01 06:15:10;;;;;;;4.10;2.65;;;;;;;21.84;57.62;99799.88;5005667;28;20684;-67
2023/07/01 06:17:36;;;;;;;3.17;2.70;;;;;;;21.97;56.42;99802.03;5008683;28;20314;-67
2023/07/01 06:20:03;;;;;;;6.07;2.70;;;;;;;22.22;56.05;99813.56;5005729;28;20200;-67
2023/07/01 06:22:31;;;;;;;3.00;2.47;;;;;;;22.41;55.62;99813.63;5007608;28;20609;-67
2023/07/01 06:24:58;;;;;;;8.48;2.60;;;;;;;22.40;56.14;99807.34;5004450;28;20240;-67
2023/07/01 06:27:24;;;;;;;3.95;2.50;;;;;;;22.36;55.43;99802.16;5005487;28;20303;-67
2023/07/01 06:29:50;;;;;;;3.13;2.38;;;;;;;22.06;55.24;99807.09;5010139;28;20472;-68
2023/07/01 06:32:17;;;;;;;5.53;2.47;;;;;;;21.42;57.27;99798.94;5005908;28;20280;-67
2023/07/01 06:34:43;;;;;;;4.30;2.50;;;;;;;21.42;57.41;99804.34;5006446;28;20664;-67
2023/07/01 06:37:10;;;;;;;4.90;2.78;;;;;;;21.43;57.59;99796.19;5005919;28;20222;-67
2023/07/01 06:39:36;;;;;;;4.88;2.42;;;;;;;21.64;58.12;99786.38;5008164;28;20197;-67
2023/07/01 06:42:05;;;;;;;6.75;3.00;;;;;;;22.15;56.90;99785.13;5004000;28;20204;-67
2023/07/01 06:44:31;;;;;;;6.03;2.88;;;;;;;22.36;54.25;99781.44;5004968;28;20204;-67
2023/07/01 06:46:58;;;;;;;7.38;3.55;;;;;;;22.51;54.66;99779.91;5008860;28;20707;-67
2023/07/01 06:49:24;;;;;;;3.92;2.55;;;;;;;22.80;53.39;99779.47;5005958;28;20664;-67
2023/07/01 06:51:50;;;;;;;3.85;2.70;;;;;;;23.01;52.99;99780.28;5003233;28;20290;-66
2023/07/01 06:54:17;;;;;;;4.03;2.70;;;;;;;23.09;51.81;99782.63;5004300;28;20279;-68
2023/07/01 06:56:43;;;;;;;5.85;2.80;;;;;;;23.39;50.54;99775.75;5007597;28;20200;-68
2023/07/01 06:59:10;;;;;;;6.72;2.95;;;;;;;23.45;49.74;99764.63;5009135;28;20572;-68
2023/07/01 07:01:36;;;;;;;4.25;2.85;;;;;;;23.50;50.39;99775.22;5004962;28;20458;-68
2023/07/01 07:04:03;;;;;;;5.13;2.40;;;;;;;23.47;50.10;99774.50;5004032;28;20208;-69
2023/07/01 07:06:29;;;;;;;3.90;2.70;;;;;;;23.35;50.98;99773.28;5004587;28;20842;-68
2023/07/01 07:08:55;;;;;;;4.65;2.75;;;;;;;23.09;50.23;99774.53;5006209;28;20592;-68
2023/07/01 07:11:22;;;;;;;4.78;2.22;;;;;;;23.14;51.94;99770.66;5006121;28;20209;-68
2023/07/01 07:13:48;;;;;;;4.03;2.70;;;;;;;22.91;52.35;99772.72;5006471;28;20287;-67
2023/07/01 07:16:15;;;;;;;6.25;2.53;;;;;;;22.64;52.43;99764.91;5006927;28;20208;-68
2023/07/01 07:18:41;;;;;;;5.85;2.60;;;;;;;22.54;51.29;99757.31;5008251;28;20307;-70
2023/07/01 07:21:08;;;;;;;5.47;2.60;;;;;;;22.32;51.65;99762.78;5005770;28;20576;-68
2023/07/01 07:23:34;;;;;;;4.97;2.40;;;;;;;22.26;51.43;99761.22;5006828;28;20522;-68
2023/07/01 07:26:01;;;;;;;6.38;2.17;;;;;;;22.41;50.92;99757.84;5005786;28;20212;-69
2023/07/01 07:28:27;;;;;;;3.10;2.38;;;;;;;22.61;50.73;99756.94;5002892;28;20441;-68
2023/07/01 07:30:53;;;;;;;2.95;2.55;;;;;;;23.16;49.43;99761.59;4998103;28;20244;-69
2023/07/01 07:33:22;;;;;;;2.90;2.17;;;;;;;23.65;48.55;99752.00;5002498;28;20203;-69
2023/07/01 07:35:49;;;;;;;4.43;2.25;;;;;;;24.04;47.37;99747.25;5005104;28;20307;-68
2023/07/01 07:38:15;;;;;;;9.57;2.70;;;;;;;23.73;47.90;99755.19;5011352;28;20254;-69
2023/07/01 07:40:43;;;;;;;2.97;2.05;;;;;;;23.39;49.21;99756.84;5011471;28;20192;-69
2023/07/01 07:43:13;;;;;;;5.78;2.55;;;;;;;22.93;51.08;99763.59;5009237;28;20705;-69
2023/07/01 07:45:39;;;;;;;3.83;2.30;;;;;;;22.54;51.84;99749.19;4996013;28;20196;-69
2023/07/01 07:48:05;;;;;;;4.95;2.50;;;;;;;22.40;52.93;99757.91;5010863;28;20303;-69
2023/07/01 07:50:35;;;;;;;8.43;2.47;;;;;;;22.56;53.01;99745.50;5012279;28;20228;-69
2023/07/01 07:53:03;;;;;;;9.02;2.58;;;;;;;22.77;53.20;99751.69;5003614;28;20232;-68
2023/07/01 07:55:33;;;;;;;3.78;2.60;;;;;;;22.65;52.53;99742.34;5002527;28;20196;-68
2023/07/01 07:58:01;;;;;;;6.00;2.58;;;;;;;22.47;53.67;99745.91;5011091;28;20243;-69
2023/07/01 08:00:28;;;;;;;2.58;2.10;;;;;;;22.60;53.16;99744.41;5000119;28;20287;-69
2023/07/01 08:02:54;;;;;;;5.30;2.33;;;;;;;22.53;54.27;99740.22;4999654;28;20207;-69
2023/07/01 08:05:21;;;;;;;6.25;2.20;;;;;;;22.51;54.20;99737.59;5010851;28;20575;-69
2023/07/01 08:07:48;;;;;;;6.07;2.42;;;;;;;22.40;55.01;99734.50;5008442;28;20754;-69
2023/07/01 08:10:17;;;;;;;4.15;2.20;;;;;;;21.92;56.10;99724.03;5006534;28;20231;-69
2023/07/01 08:12:43;;;;;;;3.45;2.78;;;;;;;21.71;57.25;99730.38;5005112;28;20568;-68
2023/07/01 08:15:10;;;;;;;7.22;2.35;;;;;;;21.59;57.76;99729.94;5010006;28;20202;-68
2023/07/01 08:17:36;;;;;;;5.53;2.72;;;;;;;21.73;57.84;99731.19;5007860;28;20242;-66
2023/07/01 08:20:04;;;;;;;3.65;2.60;;;;;;;21.94;57.34;99726.66;5001947;28;20204;-66
2023/07/01 08:22:30;;;;;;;5.10;2.78;;;;;;;22.19;56.63;99727.38;5009772;28;20259;-66
2023/07/01 08:24:58;;;;;;;5.20;2.67;;;;;;;22.25;56.63;99720.84;5004157;28;20223;-65
2023/07/01 08:27:25;;;;;;;4.00;2.63;;;;;;;22.51;55.94;99731.34;5002257;28;20311;-66
2023/07/01 08:29:51;;;;;;;6.38;2.67;;;;;;;22.55;55.68;99737.47;5006537;28;20291;-66
2023/07/01 08:32:17;;;;;;;4.90;2.47;;;;;;;22.43;56.60;99730.81;5009597;28;20200;-65
2023/07/01 08:34:44;;;;;;;3.85;2.70;;;;;;;22.32;56.35;99722.31;5003422;28;20192;-66
2023/07/01 08:37:10;;;;;;;6.57;2.60;;;;;;;21.79;57.44;99731.78;5002352;28;20770;-66
2023/07/01 08:39:36;;;;;;;5.00;3.00;;;;;;;21.76;58.47;99721.16;5010365;28;20279;-66
2023/07/01 08:42:04;;;;;;;4.53;2.47;;;;;;;21.55;59.67;99727.44;5009167;28;20300;-65
2023/07/01 08:44:31;;;;;;;4.00;2.38;;;;;;;21.85;59.08;99723.44;4991239;28;20197;-66
2023/07/01 08:47:00;;;;;;;6.85;2.65;;;;;;;22.06;58.39;99721.66;5004100;28;20224;-66
2023/07/01 08:49:27;;;;;;;8.27;2.50;;;;;;;22.05;58.52;99717.22;5009195;28;20218;-66
2023/07/01 08:52:08;;;;;;;4.28;2.65;;;;;;;22.15;58.51;99717.69;4995764;28;20407;-66
2023/07/01 08:54:36;;;;;;;4.57;2.35;;;;;;;22.22;57.97;99718.28;5001850;28;20196;-66
2023/07/01 08:57:03;;;;;;;3.60;2.30;;;;;;;22.28;57.58;99723.41;5009453;28;20308;-66
2023/07/01 08:59:30;;;;;;;6.13;2.38;;;;;;;22.38;57.95;99722.03;5006527;28;20197;-66
2023/07/01 09:01:59;;;;;;;5.07;2.22;;;;;;;22.34;58.37;99715.00;4990798;28;20201;-66
2023/07/01 09:04:27;;;;;;;5.65;2.40;;;;;;;22.40;58.02;99712.03;5009150;28;20338;-66
2023/07/01 09:06:54;;;;;;;5.15;2.05;;;;;;;22.45;57.95;99716.31;5009911;28;20220;-66
2023/07/01 09:09:20;;;;;;;2.78;2.15;;;;;;;22.26;58.41;99720.75;4998459;28;20236;-66
2023/07/01 09:11:47;;;;;;;4.32;1.95;;;;;;;22.34;58.00;99710.50;4996094;28;20275;-66
2023/07/01 09:14:13;;;;;;;6.05;2.17;;;;;;;22.41;57.64;99706.56;5006427;28;20204;-66
2023/07/01 09:16:40;;;;;;;4.38;2.00;;;;;;;22.40;58.03;99694.03;5009217;28;20200;-66
2023/07/01 09:19:16;;;;;;;4.47;2.50;;;;;;;22.66;57.60;99708.13;5007615;28;20208;-65
2023/07/01 09:21:44;;;;;;;3.55;2.20;;;;;;;22.67;57.39;99702.66;5007205;28;20668;-66
2023/07/01 09:24:12;;;;;;;6.07;2.15;;;;;;;22.81;57.27;99704.72;5007576;28;20283;-66
2023/07/01 09:26:39;;;;;;;3.95;2.15;;;;;;;22.66;57.77;99703.63;5009154;28;20216;-66
2023/07/01 09:29:10;;;;;;;4.68;2.00;;;;;;;22.72;58.04;99705.16;5009680;28;20227;-66
2023/07/01 09:31:51;;;;;;;3.50;2.00;;;;;;;22.48;58.60;99704.50;5009887;28;20193;-66
2023/07/01 09:34:18;;;;;;;3.53;2.17;;;;;;;22.30;60.06;99703.50;5007696;28;20207;-66
2023/07/01 09:36:45;;;;;;;3.30;2.03;;;;;;;22.15;61.26;99709.59;5007246;28;20200;-66
2023/07/01 09:39:11;;;;;;;3.33;2.20;;;;;;;22.33;61.16;99707.88;5009534;28;20676;-66
2023/07/01 09:41:38;;;;;;;5.15;2.20;;;;;;;22.25;62.11;99704.66;5009411;28;20212;-66
2023/07/01 09:44:16;;;;;;;3.42;2.05;;;;;;;22.19;63.42;99708.50;5008483;28;20196;-66
2023/07/01 09:46:46;;;;;;;4.57;1.92;;;;;;;21.83;65.00;99706.44;5009641;28;20227;-66
2023/07/01 09:49:12;;;;;;;3.03;2.08;;;;;;;21.74;66.53;99708.69;5009729;28;20211;-65
2023/07/01 09:51:47;;;;;;;2.20;1.60;;;;;;;21.47;67.87;99713.41;5006767;28;20199;-66
2023/07/01 09:54:27;;;;;;;3.55;1.77;;;;;;;21.48;68.40;99715.16;5008380;28;20667;-65
2023/07/01 09:56:56;;;;;;;2.45;1.70;;;;;;;21.48;69.40;99713.34;5008135;28;20200;-66
2023/07/01 09:59:23;;;;;;;2.72;1.63;;;;;;;21.49;71.43;99714.22;5006732;28;20239;-66
2023/07/01 10:01:55;;;;;;;3.03;2.10;;;;;;;21.38;72.81;99712.00;5004082;28;20484;-66
2023/07/01 10:04:28;;;;;;;3.80;1.70;;;;;;;21.05;74.24;99713.31;5007848;28;20209;-66
2023/07/01 10:06:56;;;;;;;2.78;1.80;;;;;;;20.97;77.25;99708.25;5003592;28;20216;-67
2023/07/01 10:09:26;;;;;;;3.70;2.20;;;;;;;20.69;78.28;99711.16;5010183;28;20243;-67
2023/07/01 10:11:55;;;;;;;2.78;2.00;;;;;;;20.77;79.14;99710.84;5010833;28;20212;-67
2023/07/01 10:14:24;;;;;;;2.13;1.90;;;;;;;20.84;80.78;99705.19;5010925;28;20638;-67
2023/07/01 10:16:51;;;;;;;3.40;2.20;;;;;;;20.77;85.66;99709.03;5008450;28;20287;-67
2023/07/01 10:19:26;;;;;;;2.97;1.92;;;;;;;20.55;81.08;99708.13;5010822;28;20298;-67
2023/07/01 10:21:53;;;;;;;5.00;2.10;;;;;;;20.42;83.06;99712.22;5013000;28;20266;-67
2023/07/01 10:24:36;;;;;;;3.42;2.10;;;;;;;20.48;81.86;99709.28;5010472;28;20204;-67
2023/07/01 10:27:03;;;;;;;4.20;2.08;;;;;;;20.08;83.72;99718.81;5004964;28;20517;-66
2023/07/01 10:29:30;;;;;;;3.35;2.50;;;;;;;20.22;82.89;99712.91;5011285;28;20192;-66
2023/07/01 10:32:08;;;;;;;5.05;2.13;;;;;;;20.41;82.35;99710.44;5012001;28;20258;-66
2023/07/01 10:34:53;;;;;;;3.85;2.05;;;;;;;20.40;81.64;99706.88;5012002;28;20287;-67
2023/07/01 10:37:21;;;;;;;3.95;2.40;;;;;;;20.55;81.75;99705.44;5009320;28;20220;-66
2023/07/01 10:39:49;;;;;;;3.78;2.10;;;;;;;20.63;81.54;99708.69;5012301;28;20266;-66
2023/07/01 10:42:32;;;;;;;4.07;1.92;;;;;;;20.86;79.78;99710.50;5012214;28;20231;-67
2023/07/01 10:45:10;;;;;;;5.55;2.75;;;;;;;20.77;79.87;99711.72;5005446;28;20196;-67
2023/07/01 10:47:43;;;;;;;3.13;2.45;;;;;;;20.75;80.93;99710.03;5012419;28;20307;-66
2023/07/01 10:50:11;;;;;;;5.63;2.78;;;;;;;21.00;80.06;99707.25;5007714;28;20200;-67
2023/07/01 10:52:59;;;;;;;4.45;2.72;;;;;;;21.08;79.54;99708.69;5008450;28;20207;-67
2023/07/01 10:55:46;;;;;;;5.43;2.90;;;;;;;21.11;79.56;99702.31;5010630;28;20208;-67
2023/07/01 10:58:27;;;;;;;4.53;2.85;;;;;;;21.13;78.52;99700.44;5005469;28;20248;-67
2023/07/01 11:00:58;;;;;;;3.35;2.80;;;;;;;21.22;79.45;99694.69;5009421;28;20204;-66
2023/07/01 11:03:39;;;;;;;3.67;2.90;;;;;;;21.21;79.34;99703.69;5005350;28;20364;-67
2023/07/01 11:06:13;;;;;;;2.33;2.05;;;;;;;21.13;80.60;99701.31;5012066;28;20200;-67
2023/07/01 11:08:48;;;;;;;4.28;2.25;;;;;;;21.03;79.67;99690.97;5011205;28;20259;-67
2023/07/01 11:11:22;;;;;;;5.47;2.38;;;;;;;20.97;83.28;99694.78;5010393;28;20236;-66
2023/07/01 11:13:57;;;;;;;3.13;2.40;;;;;;;20.92;84.57;99694.97;5004883;28;20206;-66
2023/07/01 11:16:25;;;;;;;3.05;2.30;;;;;;;21.09;83.36;99688.91;5007101;28;20203;-66
2023/07/01 11:18:53;;;;;;;3.38;2.60;;;;;;;21.05;82.04;99675.63;5003880;28;20260;-66
2023/07/01 11:21:22;;;;;;;2.95;2.30;;;;;;;21.12;79.85;99688.78;5002266;28;20208;-66
2023/07/01 11:23:53;;;;;;;3.67;2.40;;;;;;;21.31;79.51;99680.00;5001649;28;20197;-66
2023/07/01 11:26:29;;;;;;;5.50;2.50;;;;;;;21.35;78.70;99687.00;5004791;28;20204;-66
2023/07/01 11:28:55;;;;;;;3.85;2.20;;;;;;;21.13;79.05;99686.97;5001993;28;20295;-66
2023/07/01 11:31:24;;;;;;;2.90;2.08;;;;;;;20.98;78.18;99692.97;5010208;28;20208;-66
2023/07/01 11:33:53;;;;;;;2.35;1.90;;;;;;;20.80;78.31;99679.28;5009315;28;20211;-66
2023/07/01 11:36:34;;;;;;;2.10;1.90;;;;;;;20.85;79.45;99680.03;5004420;28;20200;-66
2023/07/01 11:39:07;;;;;;;4.05;1.98;;;;;;;20.85;79.20;99680.03;4999322;28;20645;-66
2023/07/01 11:41:35;;;;;;;2.55;2.10;;;;;;;20.80;78.69;99679.28;5005729;28;20200;-66